createdAt,value
2023-01-11T00:00:00.034Z,96888.63
2023-01-11T00:02:26.439Z,96873.03
2023-01-11T00:04:52.848Z,96875.22
2023-01-11T00:07:19.195Z,96869.94
2023-01-11T00:09:47.669Z,96873.50
2023-01-11T00:12:14.921Z,96873.69
2023-01-11T00:14:41.251Z,96873.31
2023-01-11T00:17:07.620Z,96865.69
2023-01-11T00:19:33.984Z,96868.09
2023-01-11T00:22:00.356Z,96864.59
2023-01-11T00:24:26.684Z,96866.56
2023-01-11T00:26:53.005Z,96857.94
2023-01-11T00:29:19.314Z,96858.09
2023-01-11T00:31:45.620Z,96862.28
2023-01-11T00:34:11.968Z,96857.19
2023-01-11T00:36:38.326Z,96868.88
2023-01-11T00:39:04.640Z,96869.09
2023-01-11T00:41:49.657Z,96873.16
2023-01-11T00:44:34.535Z,96876.31
2023-01-11T00:47:19.424Z,96875.69
2023-01-11T00:49:45.799Z,96874.19
2023-01-11T00:52:12.189Z,96869.59
2023-01-11T00:54:39.789Z,96872.44
2023-01-11T00:57:07.393Z,96872.78
2023-01-11T00:59:36.157Z,96865.59
2023-01-11T01:02:03.117Z,96870.66
2023-01-11T01:04:29.507Z,96865.28
2023-01-11T01:06:56.070Z,96864.03
2023-01-11T01:09:22.447Z,96869.25
2023-01-11T01:11:49.003Z,96864.72
2023-01-11T01:14:30.615Z,96863.91
2023-01-11T01:17:08.444Z,96874.81
2023-01-11T01:19:38.591Z,96862.97
2023-01-11T01:22:05.393Z,96850.66
2023-01-11T01:24:32.414Z,96852.53
2023-01-11T01:26:58.852Z,96845.25
2023-01-11T01:29:25.684Z,96853.06
2023-01-11T01:31:52.009Z,96841.72
2023-01-11T01:34:18.345Z,96833.50
2023-01-11T01:36:44.914Z,96838.16
2023-01-11T01:39:12.781Z,96839.25
2023-01-11T01:41:39.220Z,96837.13
2023-01-11T01:44:44.407Z,96834.63
2023-01-11T01:47:11.656Z,96831.31
2023-01-11T01:49:38.575Z,96836.50
2023-01-11T01:52:05.125Z,96840.47
2023-01-11T01:54:39.281Z,96833.16
2023-01-11T01:57:12.303Z,96831.94
2023-01-11T01:59:38.812Z,96840.03
2023-01-11T02:02:05.155Z,96826.94
2023-01-11T02:04:44.076Z,96828.59
2023-01-11T02:07:13.583Z,96821.81
2023-01-11T02:10:09.322Z,96818.91
2023-01-11T02:12:57.591Z,96815.84
2023-01-11T02:15:24.709Z,96809.00
2023-01-11T02:17:51.451Z,96805.34
2023-01-11T02:20:42.136Z,96809.63
2023-01-11T02:24:02.750Z,96801.09
2023-01-11T02:26:55.422Z,96803.19
2023-01-11T02:29:53.120Z,96796.19
2023-01-11T02:32:33.709Z,96791.19
2023-01-11T02:35:26.411Z,96789.28
2023-01-11T02:38:06.362Z,96780.22
2023-01-11T02:40:44.874Z,96780.34
2023-01-11T02:43:37.580Z,96772.94
2023-01-11T02:46:16.521Z,96760.34
2023-01-11T02:49:04.215Z,96761.50
2023-01-11T02:51:50.354Z,96750.69
2023-01-11T02:54:19.497Z,96752.34
2023-01-11T02:56:48.530Z,96757.97
2023-01-11T02:59:22.552Z,96748.78
2023-01-11T03:01:51.628Z,96751.72
2023-01-11T03:04:23.724Z,96763.38
2023-01-11T03:06:58.953Z,96765.25
2023-01-11T03:09:38.055Z,96760.66
2023-01-11T03:12:51.738Z,96752.78
2023-01-11T03:15:27.971Z,96763.38
2023-01-11T03:18:19.300Z,96757.53
2023-01-11T03:20:51.799Z,96756.50
2023-01-11T03:23:34.618Z,96748.59
2023-01-11T03:26:19.490Z,96748.59
2023-01-11T03:28:57.430Z,96738.59
2023-01-11T03:31:38.399Z,96735.47
2023-01-11T03:34:31.531Z,96734.00
2023-01-11T03:37:12.395Z,96731.72
2023-01-11T03:39:47.206Z,96729.03
2023-01-11T03:42:21.648Z,96715.50
2023-01-11T03:44:53.195Z,96718.19
2023-01-11T03:47:23.843Z,96715.50
2023-01-11T03:49:56.020Z,96725.47
2023-01-11T03:52:27.702Z,96722.22
2023-01-11T03:54:56.195Z,96711.94
2023-01-11T03:57:28.453Z,96707.13
2023-01-11T03:59:54.851Z,96713.59
2023-01-11T04:02:28.017Z,96716.59
2023-01-11T04:04:54.491Z,96712.84
2023-01-11T04:07:20.910Z,96716.13
2023-01-11T04:09:47.267Z,96708.72
2023-01-11T04:12:13.583Z,96711.53
2023-01-11T04:14:39.902Z,96699.44
2023-01-11T04:17:06.252Z,96697.16
2023-01-11T04:19:32.570Z,96695.41
2023-01-11T04:21:59.077Z,96701.13
2023-01-11T04:24:25.592Z,96693.63
2023-01-11T04:26:51.940Z,96702.56
2023-01-11T04:29:18.314Z,96693.81
2023-01-11T04:31:44.746Z,96697.81
2023-01-11T04:34:12.104Z,96708.31
2023-01-11T04:36:38.420Z,96703.03
2023-01-11T04:39:06.364Z,96707.72
2023-01-11T04:41:51.207Z,96702.28
2023-01-11T04:44:17.549Z,96696.78
2023-01-11T04:46:43.900Z,96696.31
2023-01-11T04:49:10.227Z,96686.13
2023-01-11T04:51:36.599Z,96694.28
2023-01-11T04:54:02.967Z,96690.00
2023-01-11T04:56:29.489Z,96681.47
2023-01-11T04:58:56.071Z,96693.25
2023-01-11T05:01:22.556Z,96678.78
2023-01-11T05:03:49.017Z,96685.66
2023-01-11T05:06:15.823Z,96689.84
2023-01-11T05:08:48.769Z,96685.03
2023-01-11T05:11:16.471Z,96696.50
2023-01-11T05:13:43.094Z,96685.66
2023-01-11T05:16:18.337Z,96686.22
2023-01-11T05:18:55.733Z,96687.75
2023-01-11T05:21:25.554Z,96677.63
2023-01-11T05:23:53.429Z,96671.28
2023-01-11T05:26:26.690Z,96676.59
2023-01-11T05:28:55.158Z,96668.22
2023-01-11T05:31:22.339Z,96680.03
2023-01-11T05:33:49.034Z,96672.94
2023-01-11T05:36:18.327Z,96671.06
2023-01-11T05:38:49.179Z,96667.94
2023-01-11T05:41:16.566Z,96667.34
2023-01-11T05:44:06.677Z,96667.53
2023-01-11T05:46:34.654Z,96664.53
2023-01-11T05:49:01.611Z,96668.41
2023-01-11T05:51:35.337Z,96665.91
2023-01-11T05:54:03.679Z,96677.38
2023-01-11T05:56:30.826Z,96667.78
2023-01-11T05:58:57.219Z,96670.09
2023-01-11T06:01:24.943Z,96677.47
2023-01-11T06:03:51.817Z,96666.13
2023-01-11T06:06:19.858Z,96674.47
2023-01-11T06:08:46.270Z,96674.97
2023-01-11T06:11:12.729Z,96661.84
2023-01-11T06:13:39.051Z,96662.03
2023-01-11T06:16:17.501Z,96659.56
2023-01-11T06:18:46.623Z,96663.81
2023-01-11T06:21:14.295Z,96658.47
2023-01-11T06:23:43.711Z,96657.44
2023-01-11T06:26:13.266Z,96654.84
2023-01-11T06:28:40.329Z,96654.41
2023-01-11T06:31:07.304Z,96650.50
2023-01-11T06:33:33.724Z,96652.94
2023-01-11T06:36:05.151Z,96652.06
2023-01-11T06:38:31.487Z,96652.78
2023-01-11T06:41:00.525Z,96652.41
2023-01-11T06:43:28.569Z,96654.88
2023-01-11T06:45:55.551Z,96656.84
2023-01-11T06:48:23.282Z,96660.31
2023-01-11T06:50:51.670Z,96663.16
2023-01-11T06:53:18.113Z,96667.13
2023-01-11T06:55:44.764Z,96660.72
2023-01-11T06:58:11.486Z,96653.75
2023-01-11T07:00:38.085Z,96661.81
2023-01-11T07:03:05.956Z,96647.09
2023-01-11T07:05:34.195Z,96654.56
2023-01-11T07:08:00.694Z,96653.75
2023-01-11T07:10:27.814Z,96653.25
2023-01-11T07:12:54.539Z,96637.53
2023-01-11T07:15:21.068Z,96644.38
2023-01-11T07:17:49.321Z,96640.97
2023-01-11T07:20:15.989Z,96664.91
2023-01-11T07:22:42.366Z,96656.84
2023-01-11T07:25:08.860Z,96649.03
2023-01-11T07:27:35.412Z,96642.69
2023-01-11T07:30:01.978Z,96649.66
2023-01-11T07:32:28.831Z,96646.25
2023-01-11T07:34:55.904Z,96634.16
2023-01-11T07:37:28.527Z,96642.91
2023-01-11T07:39:55.811Z,96637.47
2023-01-11T07:42:41.013Z,96632.97
2023-01-11T07:45:08.034Z,96629.16
2023-01-11T07:47:34.441Z,96633.81
2023-01-11T07:50:00.797Z,96628.94
2023-01-11T07:52:27.166Z,96639.84
2023-01-11T07:54:53.485Z,96636.31
2023-01-11T07:57:19.827Z,96620.56
2023-01-11T07:59:46.155Z,96636.81
2023-01-11T08:02:12.502Z,96630.34
2023-01-11T08:04:38.848Z,96615.31
2023-01-11T08:07:05.283Z,96628.09
2023-01-11T08:09:31.833Z,96625.72
2023-01-11T08:12:16.771Z,96636.88
2023-01-11T08:14:43.417Z,96634.03
2023-01-11T08:17:15.045Z,96634.53
2023-01-11T08:19:41.921Z,96641.53
2023-01-11T08:22:09.031Z,96638.81
2023-01-11T08:24:35.845Z,96652.69
2023-01-11T08:27:03.054Z,96658.00
2023-01-11T08:29:29.961Z,96667.38
2023-01-11T08:31:56.983Z,96661.13
2023-01-11T08:34:23.336Z,96649.41
2023-01-11T08:36:49.695Z,96649.56
2023-01-11T08:39:16.004Z,96652.66
2023-01-11T08:41:42.366Z,96647.78
2023-01-11T08:44:09.277Z,96658.69
2023-01-11T08:46:37.796Z,96660.25
2023-01-11T08:49:04.891Z,96657.31
2023-01-11T08:51:31.309Z,96654.94
2023-01-11T08:53:57.632Z,96659.91
2023-01-11T08:56:23.947Z,96663.16
2023-01-11T08:58:50.299Z,96662.91
2023-01-11T09:01:16.682Z,96665.06
2023-01-11T09:03:43.006Z,96670.28
2023-01-11T09:06:09.465Z,96668.41
2023-01-11T09:08:35.812Z,96672.94
2023-01-11T09:11:02.148Z,96674.22
2023-01-11T09:13:28.507Z,96674.81
2023-01-11T09:15:56.513Z,96672.94
2023-01-11T09:18:22.959Z,96672.53
2023-01-11T09:20:51.288Z,96683.41
2023-01-11T09:23:17.685Z,96679.84
2023-01-11T09:25:44.025Z,96680.34
2023-01-11T09:28:10.356Z,96683.66
2023-01-11T09:30:38.858Z,96674.66
2023-01-11T09:33:06.806Z,96671.81
2023-01-11T09:35:34.852Z,96679.41
2023-01-11T09:38:02.458Z,96670.63
2023-01-11T09:40:59.761Z,96690.44
2023-01-11T09:43:28.522Z,96682.47
2023-01-11T09:46:00.416Z,96690.78
2023-01-11T09:48:46.398Z,96683.56
2023-01-11T09:51:16.518Z,96692.72
2023-01-11T09:53:50.182Z,96688.81
2023-01-11T09:56:24.523Z,96683.94
2023-01-11T09:59:24.197Z,96677.66
2023-01-11T10:02:05.200Z,96663.53
2023-01-11T10:04:55.190Z,96671.13
2023-01-11T10:07:53.539Z,96677.06
2023-01-11T10:18:40.120Z,96651.81
2023-01-11T10:19:42.343Z,96648.25
2023-01-11T10:22:23.257Z,96652.19
2023-01-11T10:25:13.560Z,96659.78
2023-01-11T10:27:46.656Z,96656.00
2023-01-11T10:30:45.593Z,96643.41
2023-01-11T10:33:50.552Z,96652.44
2023-01-11T10:36:38.629Z,96646.13
2023-01-11T10:39:37.607Z,96654.53
2023-01-11T10:42:19.741Z,96646.47
2023-01-11T10:44:49.648Z,96630.78
2023-01-11T10:47:22.006Z,96641.84
2023-01-11T10:49:55.387Z,96627.03
2023-01-11T10:52:29.188Z,96621.06
2023-01-11T10:54:57.266Z,96627.72
2023-01-11T10:57:30.303Z,96628.53
2023-01-11T11:00:14.000Z,96620.44
2023-01-11T11:02:52.802Z,96611.84
2023-01-11T11:06:00.608Z,96623.34
2023-01-11T11:08:58.035Z,96621.69
2023-01-11T11:11:36.762Z,96617.88
2023-01-11T11:14:13.201Z,96624.91
2023-01-11T11:16:44.887Z,96649.66
2023-01-11T11:19:22.183Z,96626.66
2023-01-11T11:21:49.768Z,96635.78
2023-01-11T11:24:37.200Z,96626.66
2023-01-11T11:27:14.303Z,96629.16
2023-01-11T11:29:43.493Z,96623.22
2023-01-11T11:32:20.617Z,96610.41
2023-01-11T11:34:49.100Z,96615.25
2023-01-11T11:37:25.153Z,96638.00
2023-01-11T11:39:52.603Z,96625.69
2023-01-11T11:42:22.812Z,96621.06
2023-01-11T11:45:14.292Z,96609.78
2023-01-11T11:47:40.891Z,96615.25
2023-01-11T11:50:41.922Z,96622.13
2023-01-11T11:53:06.113Z,96603.53
2023-01-11T11:55:34.589Z,96588.22
2023-01-11T11:58:08.398Z,96591.88
2023-01-11T12:00:42.844Z,96586.75
2023-01-11T12:03:27.370Z,96590.31
2023-01-11T12:06:01.525Z,96582.22
2023-01-11T12:08:31.566Z,96585.75
2023-01-11T12:11:01.413Z,96579.84
2023-01-11T12:13:33.767Z,96570.38
2023-01-11T12:16:03.539Z,96584.59
2023-01-11T12:18:42.796Z,96574.16
2023-01-11T12:21:30.046Z,96576.53
2023-01-11T12:24:19.153Z,96585.41
2023-01-11T12:27:03.837Z,96570.13
2023-01-11T12:29:58.233Z,96573.47
2023-01-11T12:32:58.548Z,96577.25
2023-01-11T12:35:55.995Z,96586.97
2023-01-11T12:39:02.640Z,96579.41
2023-01-11T12:41:52.926Z,96576.19
2023-01-11T12:44:22.257Z,96585.09
2023-01-11T12:47:17.224Z,96587.44
2023-01-11T12:50:24.853Z,96589.13
2023-01-11T12:53:38.908Z,96592.88
2023-01-11T12:56:27.834Z,96581.47
2023-01-11T12:59:31.875Z,96589.16
2023-01-11T13:02:01.280Z,96582.56
2023-01-11T13:04:33.732Z,96588.53
2023-01-11T13:07:21.989Z,96583.84
2023-01-11T13:10:12.631Z,96589.16
2023-01-11T13:12:51.920Z,96585.31
2023-01-11T13:15:44.893Z,96586.13
2023-01-11T13:18:26.846Z,96588.41
2023-01-11T13:21:02.203Z,96591.97
2023-01-11T13:23:47.466Z,96599.25
2023-01-11T13:26:21.689Z,96596.63
2023-01-11T13:28:54.747Z,96596.00
2023-01-11T13:31:22.476Z,96593.66
2023-01-11T13:33:55.248Z,96603.78
2023-01-11T13:36:26.194Z,96609.03
2023-01-11T13:39:13.525Z,96608.28
2023-01-11T13:41:46.142Z,96606.63
2023-01-11T13:44:22.335Z,96603.38
2023-01-11T13:46:57.571Z,96604.50
2023-01-11T13:49:42.760Z,96608.63
2023-01-11T13:52:13.322Z,96624.00
2023-01-11T13:54:56.792Z,96621.47
2023-01-11T13:57:47.766Z,96633.03
2023-01-11T14:00:40.901Z,96634.97
2023-01-11T14:03:26.365Z,96635.97
2023-01-11T14:06:30.082Z,96644.88
2023-01-11T14:09:16.715Z,96647.25
2023-01-11T14:11:52.017Z,96633.94
2023-01-11T14:14:37.606Z,96638.66
2023-01-11T14:17:21.103Z,96656.16
2023-01-11T14:20:06.748Z,96648.25
2023-01-11T14:22:49.675Z,96655.16
2023-01-11T14:25:33.280Z,96658.69
2023-01-11T14:28:18.235Z,96660.78
2023-01-11T14:31:04.870Z,96657.00
2023-01-11T14:33:57.280Z,96659.09
2023-01-11T14:36:35.706Z,96660.72
2023-01-11T14:39:20.756Z,96660.31
2023-01-11T14:42:31.343Z,96666.47
2023-01-11T14:45:19.863Z,96665.97
2023-01-11T14:47:55.244Z,96664.06
2023-01-11T14:50:34.528Z,96673.41
2023-01-11T14:53:03.537Z,96675.53
2023-01-11T14:55:35.553Z,96676.06
2023-01-11T14:58:04.369Z,96680.94
2023-01-11T15:00:30.643Z,96680.75
2023-01-11T15:02:59.775Z,96689.38
2023-01-11T15:05:37.852Z,96683.34
2023-01-11T15:08:13.486Z,96683.84
2023-01-11T15:10:58.205Z,96692.41
2023-01-11T15:13:44.330Z,96696.16
2023-01-11T15:16:42.574Z,96705.31
2023-01-11T15:19:23.483Z,96702.84
2023-01-11T15:21:53.232Z,96706.59
2023-01-11T15:24:24.538Z,96706.34
2023-01-11T15:26:51.579Z,96714.59
2023-01-11T15:29:23.783Z,96718.56
2023-01-11T15:32:02.053Z,96727.00
2023-01-11T15:34:31.417Z,96721.56
2023-01-11T15:37:01.209Z,96733.22
2023-01-11T15:39:44.390Z,96737.78
2023-01-11T15:42:16.648Z,96733.69
2023-01-11T15:44:48.929Z,96743.69
2023-01-11T15:47:34.594Z,96754.00
2023-01-11T15:50:40.835Z,96765.50
2023-01-11T15:53:33.935Z,96768.25
2023-01-11T15:56:03.278Z,96777.31
2023-01-11T15:58:50.491Z,96776.16
2023-01-11T16:01:28.253Z,96773.63
2023-01-11T16:04:34.299Z,96783.13
2023-01-11T16:07:42.745Z,96788.34
2023-01-11T16:10:55.324Z,96796.69
2023-01-11T16:13:30.750Z,96804.28
2023-01-11T16:16:10.211Z,96817.53
2023-01-11T16:18:44.423Z,96808.75
2023-01-11T16:21:26.456Z,96809.81
2023-01-11T16:23:55.094Z,96825.66
2023-01-11T16:26:22.001Z,96826.16
2023-01-11T16:28:51.628Z,96828.44
2023-01-11T16:31:18.144Z,96835.44
2023-01-11T16:33:44.766Z,96844.19
2023-01-11T16:36:11.234Z,96840.25
2023-01-11T16:39:07.208Z,96847.13
2023-01-11T16:41:44.111Z,96849.53
2023-01-11T16:44:24.551Z,96852.84
2023-01-11T16:47:13.182Z,96868.91
2023-01-11T16:49:42.887Z,96875.91
2023-01-11T16:52:27.522Z,96886.53
2023-01-11T16:54:56.030Z,96879.66
2023-01-11T16:57:30.781Z,96884.97
2023-01-11T17:00:04.128Z,96876.09
2023-01-11T17:02:35.565Z,96892.19
2023-01-11T17:05:01.959Z,96892.38
2023-01-11T17:07:29.893Z,96887.56
2023-01-11T17:10:16.632Z,96893.84
2023-01-11T17:12:45.940Z,96895.50
2023-01-11T17:15:21.299Z,96895.59
2023-01-11T17:17:47.714Z,96907.59
2023-01-11T17:20:22.990Z,96907.19
2023-01-11T17:22:53.536Z,96914.06
2023-01-11T17:25:29.601Z,96908.41
2023-01-11T17:28:14.486Z,96909.56
2023-01-11T17:30:44.927Z,96913.84
2023-01-11T17:33:25.042Z,96913.53
2023-01-11T17:35:52.103Z,96907.06
2023-01-11T17:38:22.192Z,96915.34
2023-01-11T17:40:48.781Z,96918.03
2023-01-11T17:43:41.201Z,96925.13
2023-01-11T17:46:09.298Z,96920.94
2023-01-11T17:48:35.720Z,96926.34
2023-01-11T17:51:03.762Z,96930.53
2023-01-11T17:53:35.119Z,96938.66
2023-01-11T17:56:04.244Z,96933.38
2023-01-11T17:58:37.914Z,96930.44
2023-01-11T18:01:04.684Z,96937.84
2023-01-11T18:03:43.796Z,96942.31
2023-01-11T18:06:30.100Z,96944.09
2023-01-11T18:08:58.116Z,96944.19
2023-01-11T18:11:30.848Z,96945.38
2023-01-11T18:14:01.081Z,96957.66
2023-01-11T18:16:28.319Z,96955.34
2023-01-11T18:18:55.706Z,96956.50
2023-01-11T18:21:25.067Z,96953.19
2023-01-11T18:24:09.867Z,96949.94
2023-01-11T18:26:41.410Z,96951.38
2023-01-11T18:29:20.097Z,96964.22
2023-01-11T18:31:46.686Z,96963.69
2023-01-11T18:34:13.025Z,96976.94
2023-01-11T18:36:39.418Z,96971.53
2023-01-11T18:39:10.217Z,96981.66
2023-01-11T18:41:56.396Z,96988.31
2023-01-11T18:44:22.743Z,96982.28
2023-01-11T18:46:49.124Z,96975.91
2023-01-11T18:49:15.454Z,96972.81
2023-01-11T18:51:45.009Z,96971.53
2023-01-11T18:54:17.496Z,96972.97
2023-01-11T18:56:44.089Z,96978.00
2023-01-11T18:59:10.540Z,96972.16
2023-01-11T19:01:52.643Z,96958.38
2023-01-11T19:04:22.649Z,96986.16
2023-01-11T19:06:49.024Z,96988.75
2023-01-11T19:09:15.340Z,96977.38
2023-01-11T19:11:41.659Z,96982.69
2023-01-11T19:14:10.139Z,96987.69
2023-01-11T19:16:36.504Z,96978.09
2023-01-11T19:19:02.874Z,96969.00
2023-01-11T19:21:29.211Z,96983.53
2023-01-11T19:23:55.537Z,96988.84
2023-01-11T19:26:21.858Z,96989.16
2023-01-11T19:28:48.202Z,96996.88
2023-01-11T19:31:14.647Z,96994.41
2023-01-11T19:33:41.485Z,96991.66
2023-01-11T19:36:08.217Z,96987.19
2023-01-11T19:38:34.716Z,96997.91
2023-01-11T19:41:07.058Z,97004.38
2023-01-11T19:43:33.697Z,96996.66
2023-01-11T19:46:01.935Z,97001.91
2023-01-11T19:48:28.272Z,97013.25
2023-01-11T19:51:02.647Z,97025.47
2023-01-11T19:53:30.455Z,97022.34
2023-01-11T19:56:14.995Z,97024.00
2023-01-11T19:58:41.335Z,97031.41
2023-01-11T20:01:10.611Z,97041.94
2023-01-11T20:03:37.076Z,97036.09
2023-01-11T20:06:08.034Z,97028.38
2023-01-11T20:08:40.397Z,97046.22
2023-01-11T20:11:12.008Z,97043.38
2023-01-11T20:13:39.390Z,97037.75
2023-01-11T20:16:07.365Z,97048.44
2023-01-11T20:18:33.924Z,97043.66
2023-01-11T20:21:00.632Z,97047.50
2023-01-11T20:23:30.219Z,97043.34
2023-01-11T20:26:01.977Z,97042.81
2023-01-11T20:28:28.373Z,97050.00
2023-01-11T20:30:56.251Z,97051.88
2023-01-11T20:33:22.649Z,97057.28
2023-01-11T20:35:49.192Z,97060.06
2023-01-11T20:38:15.783Z,97057.47
2023-01-11T20:40:42.311Z,97066.09
2023-01-11T20:43:10.933Z,97070.91
2023-01-11T20:45:39.547Z,97082.28
2023-01-11T20:48:07.210Z,97079.97
2023-01-11T20:50:35.419Z,97078.72
2023-01-11T20:53:02.672Z,97068.50
2023-01-11T20:55:29.214Z,97079.31
2023-01-11T20:57:55.602Z,97082.66
2023-01-11T21:00:22.189Z,97075.88
2023-01-11T21:02:49.608Z,97088.06
2023-01-11T21:05:16.470Z,97084.75
2023-01-11T21:07:42.887Z,97086.44
2023-01-11T21:10:09.900Z,97081.34
2023-01-11T21:12:36.234Z,97086.03
2023-01-11T21:15:02.572Z,97082.53
2023-01-11T21:17:28.940Z,97080.38
2023-01-11T21:19:55.293Z,97083.34
2023-01-11T21:22:21.701Z,97089.53
2023-01-11T21:24:48.297Z,97094.06
2023-01-11T21:27:14.718Z,97093.75
2023-01-11T21:29:41.089Z,97086.84
2023-01-11T21:32:07.444Z,97095.81
2023-01-11T21:34:33.830Z,97094.22
2023-01-11T21:37:00.173Z,97097.22
2023-01-11T21:39:26.746Z,97090.94
2023-01-11T21:41:55.833Z,97096.06
2023-01-11T21:44:27.286Z,97101.97
2023-01-11T21:46:53.783Z,97104.13
2023-01-11T21:49:22.316Z,97097.84
2023-01-11T21:51:48.622Z,97108.88
2023-01-11T21:54:16.926Z,97109.69
2023-01-11T21:56:43.284Z,97111.34
2023-01-11T21:59:09.980Z,97114.59
2023-01-11T22:01:37.734Z,97124.59
2023-01-11T22:04:12.726Z,97115.91
2023-01-11T22:06:40.709Z,97118.50
2023-01-11T22:09:09.848Z,97113.09
2023-01-11T22:11:37.624Z,97113.09
2023-01-11T22:14:06.355Z,97115.91
2023-01-11T22:16:33.226Z,97124.50
2023-01-11T22:19:00.651Z,97118.31
2023-01-11T22:21:27.942Z,97114.06
2023-01-11T22:23:56.319Z,97113.09
2023-01-11T22:26:23.515Z,97119.97
2023-01-11T22:29:11.766Z,97113.47
2023-01-11T22:31:48.951Z,97107.63
2023-01-11T22:34:15.671Z,97098.97
2023-01-11T22:36:42.934Z,97100.75
2023-01-11T22:39:10.161Z,97097.16
2023-01-11T22:41:36.576Z,97112.69
2023-01-11T22:44:03.158Z,97122.06
2023-01-11T22:46:29.524Z,97125.13
2023-01-11T22:48:55.944Z,97136.56
2023-01-11T22:51:25.115Z,97145.91
2023-01-11T22:53:53.644Z,97146.53
2023-01-11T22:56:22.309Z,97143.44
2023-01-11T22:58:50.525Z,97134.97
2023-01-11T23:01:21.142Z,97138.16
2023-01-11T23:03:48.235Z,97136.81
2023-01-11T23:06:20.229Z,97138.03
2023-01-11T23:08:46.627Z,97149.78
2023-01-11T23:11:38.969Z,97141.34
2023-01-11T23:14:08.155Z,97146.91
2023-01-11T23:16:35.180Z,97151.56
2023-01-11T23:19:02.019Z,97151.75
2023-01-11T23:21:28.418Z,97150.41
2023-01-11T23:23:54.820Z,97158.72
2023-01-11T23:26:22.168Z,97158.22
2023-01-11T23:28:49.972Z,97162.13
2023-01-11T23:31:19.419Z,97165.13
2023-01-11T23:33:47.609Z,97159.28
2023-01-11T23:36:15.293Z,97155.28
2023-01-11T23:38:41.705Z,97153.22
2023-01-11T23:41:35.883Z,97143.38
2023-01-11T23:44:05.480Z,97133.59
2023-01-11T23:46:50.620Z,97134.25
2023-01-11T23:49:17.777Z,97137.44
2023-01-11T23:51:44.139Z,97141.06
2023-01-11T23:54:10.775Z,97136.69
2023-01-11T23:56:37.973Z,97132.59
2023-01-11T23:59:04.738Z,97129.63
